Terminal Aerodrome Forecast
Issued by NWS Tampa Bay Area, FL

Home | Current Version | Previous Version | Text Only | Print | Product List | Glossary On
Versions: 1 2 3 4 5 6 7 8 9 10 11 12 13
000
FTUS42 KTBW 220541
TAFSRQ
TAF
KSRQ 220541Z 2206/2306 VRB06KT P6SM FEW250
     FM221800 29008KT P6SM VCSH FEW050 SCT250
     FM230300 VRB06KT P6SM FEW050 SCT250=

USA.gov is the U.S. government's official web portal to all federal, state and local government web resources and services.